sensor_id;sensor_type;location;lat;lon;timestamp;temperature;humidity
15707;DHT22;7953;54.302;10.128;2022-11-21T00:00:24;-1.10;99.90
15707;DHT22;7953;54.302;10.128;2022-11-21T00:02:51;-1.10;99.90
15707;DHT22;7953;54.302;10.128;2022-11-21T00:05:19;-1.10;99.90
15707;DHT22;7953;54.302;10.128;2022-11-21T00:07:46;-1.10;99.90
15707;DHT22;7953;54.302;10.128;2022-11-21T00:10:14;-1.10;99.90
15707;DHT22;7953;54.302;10.128;2022-11-21T00:12:42;-1.10;99.90
15707;DHT22;7953;54.302;10.128;2022-11-21T00:15:09;-1.10;99.90
15707;DHT22;7953;54.302;10.128;2022-11-21T00:17:36;-1.10;99.90
15707;DHT22;7953;54.302;10.128;2022-11-21T00:20:04;-1.20;99.90
15707;DHT22;7953;54.302;10.128;2022-11-21T00:22:32;-1.20;99.90
15707;DHT22;7953;54.302;10.128;2022-11-21T00:24:59;-1.20;99.90
15707;DHT22;7953;54.302;10.128;2022-11-21T00:27:26;-1.10;99.90
15707;DHT22;7953;54.302;10.128;2022-11-21T00:29:53;-1.10;99.90
15707;DHT22;7953;54.302;10.128;2022-11-21T00:32:20;-1.10;99.90
15707;DHT22;7953;54.302;10.128;2022-11-21T00:34:47;-1.10;99.90
15707;DHT22;7953;54.302;10.128;2022-11-21T00:37:14;-1.10;99.90
15707;DHT22;7953;54.302;10.128;2022-11-21T00:39:42;-1.10;99.90
15707;DHT22;7953;54.302;10.128;2022-11-21T00:42:09;-1.10;99.90
15707;DHT22;7953;54.302;10.128;2022-11-21T00:44:36;-1.20;99.90
15707;DHT22;7953;54.302;10.128;2022-11-21T00:47:03;-1.20;99.90
15707;DHT22;7953;54.302;10.128;2022-11-21T00:49:30;-1.20;99.90
15707;DHT22;7953;54.302;10.128;2022-11-21T00:51:56;-1.10;99.90
15707;DHT22;7953;54.302;10.128;2022-11-21T00:54:23;-1.10;99.90
15707;DHT22;7953;54.302;10.128;2022-11-21T00:56:52;-1.10;99.90
15707;DHT22;7953;54.302;10.128;2022-11-21T00:59:18;-1.10;99.90
15707;DHT22;7953;54.302;10.128;2022-11-21T01:01:45;-1.10;99.90
15707;DHT22;7953;54.302;10.128;2022-11-21T01:04:12;-1.00;99.90
15707;DHT22;7953;54.302;10.128;2022-11-21T01:06:39;-1.00;99.90
15707;DHT22;7953;54.302;10.128;2022-11-21T01:09:06;-1.00;99.90
15707;DHT22;7953;54.302;10.128;2022-11-21T01:11:33;-1.00;99.90
15707;DHT22;7953;54.302;10.128;2022-11-21T01:14:02;-0.90;99.90
15707;DHT22;7953;54.302;10.128;2022-11-21T01:16:29;-0.90;99.90
15707;DHT22;7953;54.302;10.128;2022-11-21T01:18:56;-0.80;99.90
15707;DHT22;7953;54.302;10.128;2022-11-21T01:21:24;-0.80;99.90
15707;DHT22;7953;54.302;10.128;2022-11-21T01:23:52;-0.80;99.90
15707;DHT22;7953;54.302;10.128;2022-11-21T01:26:20;-0.80;99.90
15707;DHT22;7953;54.302;10.128;2022-11-21T01:28:47;-0.80;99.90
15707;DHT22;7953;54.302;10.128;2022-11-21T01:31:18;-0.80;99.90
15707;DHT22;7953;54.302;10.128;2022-11-21T01:33:45;-0.80;99.90
15707;DHT22;7953;54.302;10.128;2022-11-21T01:36:14;-0.80;99.90
15707;DHT22;7953;54.302;10.128;2022-11-21T01:38:43;-0.80;99.90
15707;DHT22;7953;54.302;10.128;2022-11-21T01:41:12;-0.90;99.90
15707;DHT22;7953;54.302;10.128;2022-11-21T01:43:39;-0.90;99.90
15707;DHT22;7953;54.302;10.128;2022-11-21T01:46:11;-0.90;99.90
15707;DHT22;7953;54.302;10.128;2022-11-21T01:48:44;-0.90;99.90
15707;DHT22;7953;54.302;10.128;2022-11-21T01:51:17;-0.90;99.90
15707;DHT22;7953;54.302;10.128;2022-11-21T01:53:49;-0.90;99.90
15707;DHT22;7953;54.302;10.128;2022-11-21T01:56:18;-0.90;99.90
15707;DHT22;7953;54.302;10.128;2022-11-21T01:58:46;-0.90;99.90
15707;DHT22;7953;54.302;10.128;2022-11-21T02:01:14;-0.90;99.90
15707;DHT22;7953;54.302;10.128;2022-11-21T02:03:43;-0.90;99.90
15707;DHT22;7953;54.302;10.128;2022-11-21T02:06:12;-0.90;99.90
15707;DHT22;7953;54.302;10.128;2022-11-21T02:08:40;-0.90;99.90
15707;DHT22;7953;54.302;10.128;2022-11-21T02:11:11;-0.90;99.90
15707;DHT22;7953;54.302;10.128;2022-11-21T02:13:40;-0.80;99.90
15707;DHT22;7953;54.302;10.128;2022-11-21T02:16:07;-0.80;99.90
15707;DHT22;7953;54.302;10.128;2022-11-21T02:18:33;-0.90;99.90
15707;DHT22;7953;54.302;10.128;2022-11-21T02:21:11;-0.80;99.90
15707;DHT22;7953;54.302;10.128;2022-11-21T02:23:43;-0.90;99.90
15707;DHT22;7953;54.302;10.128;2022-11-21T02:26:12;-0.90;99.90
15707;DHT22;7953;54.302;10.128;2022-11-21T02:28:39;-0.90;99.90
15707;DHT22;7953;54.302;10.128;2022-11-21T02:31:06;-0.90;99.90
15707;DHT22;7953;54.302;10.128;2022-11-21T02:33:33;-0.90;99.90
15707;DHT22;7953;54.302;10.128;2022-11-21T02:36:01;-0.80;99.90
15707;DHT22;7953;54.302;10.128;2022-11-21T02:38:30;-0.80;99.90
15707;DHT22;7953;54.302;10.128;2022-11-21T02:41:02;-0.80;99.90
15707;DHT22;7953;54.302;10.128;2022-11-21T02:43:37;-0.80;99.90
15707;DHT22;7953;54.302;10.128;2022-11-21T02:46:05;-0.80;99.90
15707;DHT22;7953;54.302;10.128;2022-11-21T02:48:32;-0.80;99.90
15707;DHT22;7953;54.302;10.128;2022-11-21T02:50:59;-0.90;99.90
15707;DHT22;7953;54.302;10.128;2022-11-21T02:53:26;-0.90;99.90
15707;DHT22;7953;54.302;10.128;2022-11-21T02:58:22;-0.90;99.90
15707;DHT22;7953;54.302;10.128;2022-11-21T03:00:50;-0.90;99.90
15707;DHT22;7953;54.302;10.128;2022-11-21T03:03:19;-0.90;99.90
15707;DHT22;7953;54.302;10.128;2022-11-21T03:05:46;-0.90;99.90
15707;DHT22;7953;54.302;10.128;2022-11-21T03:08:13;-0.90;99.90
15707;DHT22;7953;54.302;10.128;2022-11-21T03:10:40;-0.90;99.90
15707;DHT22;7953;54.302;10.128;2022-11-21T03:13:07;-0.90;99.90
15707;DHT22;7953;54.302;10.128;2022-11-21T03:15:34;-0.90;99.90
15707;DHT22;7953;54.302;10.128;2022-11-21T03:18:03;-0.90;99.90
15707;DHT22;7953;54.302;10.128;2022-11-21T03:20:31;-0.90;99.90
15707;DHT22;7953;54.302;10.128;2022-11-21T03:22:59;-0.90;99.90
15707;DHT22;7953;54.302;10.128;2022-11-21T03:25:26;-0.90;99.90
15707;DHT22;7953;54.302;10.128;2022-11-21T03:27:53;-0.80;99.90
15707;DHT22;7953;54.302;10.128;2022-11-21T03:30:21;-0.80;99.90
15707;DHT22;7953;54.302;10.128;2022-11-21T03:32:48;-0.90;99.90
15707;DHT22;7953;54.302;10.128;2022-11-21T03:35:17;-0.80;99.90
15707;DHT22;7953;54.302;10.128;2022-11-21T03:37:43;-0.80;99.90
15707;DHT22;7953;54.302;10.128;2022-11-21T03:40:11;-0.80;99.90
15707;DHT22;7953;54.302;10.128;2022-11-21T03:42:38;-0.80;99.90
15707;DHT22;7953;54.302;10.128;2022-11-21T03:45:06;-0.80;99.90
15707;DHT22;7953;54.302;10.128;2022-11-21T03:47:33;-0.80;99.90
15707;DHT22;7953;54.302;10.128;2022-11-21T03:50:00;-0.70;99.90
15707;DHT22;7953;54.302;10.128;2022-11-21T03:52:28;-0.80;99.90
15707;DHT22;7953;54.302;10.128;2022-11-21T03:54:55;-0.70;99.90
15707;DHT22;7953;54.302;10.128;2022-11-21T03:57:22;-0.70;99.90
15707;DHT22;7953;54.302;10.128;2022-11-21T03:59:48;-0.70;99.90
15707;DHT22;7953;54.302;10.128;2022-11-21T04:02:15;-0.70;99.90
15707;DHT22;7953;54.302;10.128;2022-11-21T04:04:42;-0.70;99.90
15707;DHT22;7953;54.302;10.128;2022-11-21T04:07:09;-0.80;99.90
15707;DHT22;7953;54.302;10.128;2022-11-21T04:09:37;-0.70;99.90
15707;DHT22;7953;54.302;10.128;2022-11-21T04:12:04;-0.80;99.90
15707;DHT22;7953;54.302;10.128;2022-11-21T04:14:31;-0.80;99.90
15707;DHT22;7953;54.302;10.128;2022-11-21T04:16:58;-0.80;99.90
15707;DHT22;7953;54.302;10.128;2022-11-21T04:19:25;-0.80;99.90
15707;DHT22;7953;54.302;10.128;2022-11-21T04:21:52;-0.80;99.90
15707;DHT22;7953;54.302;10.128;2022-11-21T04:24:19;-0.80;99.90
15707;DHT22;7953;54.302;10.128;2022-11-21T04:26:47;-0.80;99.90
15707;DHT22;7953;54.302;10.128;2022-11-21T04:29:14;-0.90;99.90
15707;DHT22;7953;54.302;10.128;2022-11-21T04:31:40;-0.90;99.90
15707;DHT22;7953;54.302;10.128;2022-11-21T04:34:07;-0.90;99.90
15707;DHT22;7953;54.302;10.128;2022-11-21T04:36:34;-1.00;99.90
15707;DHT22;7953;54.302;10.128;2022-11-21T04:39:01;-1.00;99.90
15707;DHT22;7953;54.302;10.128;2022-11-21T04:41:28;-1.00;99.90
15707;DHT22;7953;54.302;10.128;2022-11-21T04:43:56;-1.00;99.90
15707;DHT22;7953;54.302;10.128;2022-11-21T04:46:23;-0.90;99.90
15707;DHT22;7953;54.302;10.128;2022-11-21T04:48:50;-1.00;99.90
15707;DHT22;7953;54.302;10.128;2022-11-21T04:51:17;-1.00;99.90
15707;DHT22;7953;54.302;10.128;2022-11-21T04:53:44;-1.00;99.90
15707;DHT22;7953;54.302;10.128;2022-11-21T04:56:10;-1.00;99.90
15707;DHT22;7953;54.302;10.128;2022-11-21T04:58:41;-1.00;99.90
15707;DHT22;7953;54.302;10.128;2022-11-21T05:01:09;-1.00;99.90
15707;DHT22;7953;54.302;10.128;2022-11-21T05:03:36;-1.00;99.90
15707;DHT22;7953;54.302;10.128;2022-11-21T05:06:03;-1.00;99.90
15707;DHT22;7953;54.302;10.128;2022-11-21T05:08:30;-0.90;99.90
15707;DHT22;7953;54.302;10.128;2022-11-21T05:10:56;-0.90;99.90
15707;DHT22;7953;54.302;10.128;2022-11-21T05:13:41;-0.90;99.90
15707;DHT22;7953;54.302;10.128;2022-11-21T05:16:09;-0.90;99.90
15707;DHT22;7953;54.302;10.128;2022-11-21T05:18:36;-0.90;99.90
15707;DHT22;7953;54.302;10.128;2022-11-21T05:21:03;-0.90;99.90
15707;DHT22;7953;54.302;10.128;2022-11-21T05:23:30;-0.80;99.90
15707;DHT22;7953;54.302;10.128;2022-11-21T05:25:57;-0.90;99.90
15707;DHT22;7953;54.302;10.128;2022-11-21T05:28:23;-0.90;99.90
15707;DHT22;7953;54.302;10.128;2022-11-21T05:30:50;-0.90;99.90
15707;DHT22;7953;54.302;10.128;2022-11-21T05:33:18;-0.90;99.90
15707;DHT22;7953;54.302;10.128;2022-11-21T05:35:45;-0.90;99.90
15707;DHT22;7953;54.302;10.128;2022-11-21T05:38:12;-0.90;99.90
15707;DHT22;7953;54.302;10.128;2022-11-21T05:40:39;-1.00;99.90
15707;DHT22;7953;54.302;10.128;2022-11-21T05:43:06;-0.90;99.90
15707;DHT22;7953;54.302;10.128;2022-11-21T05:45:51;-0.90;99.90
15707;DHT22;7953;54.302;10.128;2022-11-21T05:48:19;-0.90;99.90
15707;DHT22;7953;54.302;10.128;2022-11-21T05:50:47;-0.90;99.90
15707;DHT22;7953;54.302;10.128;2022-11-21T05:53:15;-0.90;99.90
15707;DHT22;7953;54.302;10.128;2022-11-21T05:55:42;-0.90;99.90
15707;DHT22;7953;54.302;10.128;2022-11-21T05:58:09;-0.90;99.90
15707;DHT22;7953;54.302;10.128;2022-11-21T06:00:36;-0.90;99.90
15707;DHT22;7953;54.302;10.128;2022-11-21T06:03:05;-0.90;99.90
15707;DHT22;7953;54.302;10.128;2022-11-21T06:05:51;-0.90;99.90
15707;DHT22;7953;54.302;10.128;2022-11-21T06:08:18;-0.90;99.90
15707;DHT22;7953;54.302;10.128;2022-11-21T06:10:45;-0.90;99.90
15707;DHT22;7953;54.302;10.128;2022-11-21T06:13:12;-0.90;99.90
15707;DHT22;7953;54.302;10.128;2022-11-21T06:15:52;-0.90;99.90
15707;DHT22;7953;54.302;10.128;2022-11-21T06:18:19;-0.90;99.90
15707;DHT22;7953;54.302;10.128;2022-11-21T06:20:46;-0.80;99.90
15707;DHT22;7953;54.302;10.128;2022-11-21T06:23:14;-0.80;99.90
15707;DHT22;7953;54.302;10.128;2022-11-21T06:25:41;-0.70;99.90
15707;DHT22;7953;54.302;10.128;2022-11-21T06:28:09;-0.80;99.90
15707;DHT22;7953;54.302;10.128;2022-11-21T06:30:36;-0.80;99.90
15707;DHT22;7953;54.302;10.128;2022-11-21T06:33:04;-0.80;99.90
15707;DHT22;7953;54.302;10.128;2022-11-21T06:35:31;-0.90;99.90
15707;DHT22;7953;54.302;10.128;2022-11-21T06:37:58;-0.80;99.90
15707;DHT22;7953;54.302;10.128;2022-11-21T06:40:26;-0.90;99.90
15707;DHT22;7953;54.302;10.128;2022-11-21T06:42:53;-0.80;99.90
15707;DHT22;7953;54.302;10.128;2022-11-21T06:45:20;-0.80;99.90
15707;DHT22;7953;54.302;10.128;2022-11-21T06:47:47;-0.80;99.90
15707;DHT22;7953;54.302;10.128;2022-11-21T06:50:14;-0.80;99.90
15707;DHT22;7953;54.302;10.128;2022-11-21T06:52:41;-0.70;99.90
15707;DHT22;7953;54.302;10.128;2022-11-21T06:55:08;-0.70;99.90
15707;DHT22;7953;54.302;10.128;2022-11-21T06:57:37;-0.80;99.90
15707;DHT22;7953;54.302;10.128;2022-11-21T07:00:05;-0.80;99.90
15707;DHT22;7953;54.302;10.128;2022-11-21T07:02:32;-0.70;99.90
15707;DHT22;7953;54.302;10.128;2022-11-21T07:04:59;-0.70;99.90
15707;DHT22;7953;54.302;10.128;2022-11-21T07:07:26;-0.80;99.90
15707;DHT22;7953;54.302;10.128;2022-11-21T07:09:52;-0.70;99.90
15707;DHT22;7953;54.302;10.128;2022-11-21T07:12:19;-0.70;99.90
15707;DHT22;7953;54.302;10.128;2022-11-21T07:15:06;-0.70;99.90
15707;DHT22;7953;54.302;10.128;2022-11-21T07:17:33;-0.60;99.90
15707;DHT22;7953;54.302;10.128;2022-11-21T07:20:00;-0.60;99.90
15707;DHT22;7953;54.302;10.128;2022-11-21T07:22:27;-0.60;99.90
15707;DHT22;7953;54.302;10.128;2022-11-21T07:24:53;-0.60;99.90
15707;DHT22;7953;54.302;10.128;2022-11-21T07:27:20;-0.60;99.90
15707;DHT22;7953;54.302;10.128;2022-11-21T07:29:47;-0.50;99.90
15707;DHT22;7953;54.302;10.128;2022-11-21T07:32:15;-0.60;99.90
15707;DHT22;7953;54.302;10.128;2022-11-21T07:34:42;-0.60;99.90
15707;DHT22;7953;54.302;10.128;2022-11-21T07:37:09;-0.50;99.90
15707;DHT22;7953;54.302;10.128;2022-11-21T07:39:36;-0.50;99.90
15707;DHT22;7953;54.302;10.128;2022-11-21T07:42:03;-0.40;99.90
15707;DHT22;7953;54.302;10.128;2022-11-21T07:44:29;-0.40;99.90
15707;DHT22;7953;54.302;10.128;2022-11-21T07:46:56;-0.40;99.90
15707;DHT22;7953;54.302;10.128;2022-11-21T07:49:24;-0.30;99.90
15707;DHT22;7953;54.302;10.128;2022-11-21T07:51:51;-0.30;99.90
15707;DHT22;7953;54.302;10.128;2022-11-21T07:54:18;-0.40;99.90
15707;DHT22;7953;54.302;10.128;2022-11-21T07:56:45;-0.30;99.90
15707;DHT22;7953;54.302;10.128;2022-11-21T07:59:12;-0.30;99.90
15707;DHT22;7953;54.302;10.128;2022-11-21T08:01:39;-0.30;99.90
15707;DHT22;7953;54.302;10.128;2022-11-21T08:04:06;-0.30;99.90
15707;DHT22;7953;54.302;10.128;2022-11-21T08:06:34;-0.30;99.90
15707;DHT22;7953;54.302;10.128;2022-11-21T08:09:01;-0.20;99.90
15707;DHT22;7953;54.302;10.128;2022-11-21T08:11:28;-0.20;99.90
15707;DHT22;7953;54.302;10.128;2022-11-21T08:13:56;-0.30;99.90
15707;DHT22;7953;54.302;10.128;2022-11-21T08:16:23;-0.20;99.90
15707;DHT22;7953;54.302;10.128;2022-11-21T08:18:52;-0.20;99.90
15707;DHT22;7953;54.302;10.128;2022-11-21T08:21:19;-0.20;99.90
15707;DHT22;7953;54.302;10.128;2022-11-21T08:23:48;-0.10;99.90
15707;DHT22;7953;54.302;10.128;2022-11-21T08:26:15;-0.10;99.90
15707;DHT22;7953;54.302;10.128;2022-11-21T08:28:41;0.00;99.90
15707;DHT22;7953;54.302;10.128;2022-11-21T08:31:08;0.00;99.90
15707;DHT22;7953;54.302;10.128;2022-11-21T08:33:35;0.00;99.90
15707;DHT22;7953;54.302;10.128;2022-11-21T08:36:03;0.00;99.90
15707;DHT22;7953;54.302;10.128;2022-11-21T08:38:30;0.00;99.90
15707;DHT22;7953;54.302;10.128;2022-11-21T08:40:59;0.10;99.90
15707;DHT22;7953;54.302;10.128;2022-11-21T08:43:43;0.00;99.90
15707;DHT22;7953;54.302;10.128;2022-11-21T08:46:10;0.10;99.90
15707;DHT22;7953;54.302;10.128;2022-11-21T08:48:37;0.10;99.90
15707;DHT22;7953;54.302;10.128;2022-11-21T08:51:04;0.10;99.90
15707;DHT22;7953;54.302;10.128;2022-11-21T08:53:31;0.10;99.90
15707;DHT22;7953;54.302;10.128;2022-11-21T08:55:59;0.10;99.90
15707;DHT22;7953;54.302;10.128;2022-11-21T08:58:26;0.20;99.90
15707;DHT22;7953;54.302;10.128;2022-11-21T09:00:53;0.20;99.90
15707;DHT22;7953;54.302;10.128;2022-11-21T09:03:20;0.20;99.90
15707;DHT22;7953;54.302;10.128;2022-11-21T09:05:47;0.20;99.90
15707;DHT22;7953;54.302;10.128;2022-11-21T09:08:14;0.20;99.90
15707;DHT22;7953;54.302;10.128;2022-11-21T09:10:41;0.20;99.90
15707;DHT22;7953;54.302;10.128;2022-11-21T09:13:09;0.30;99.90
15707;DHT22;7953;54.302;10.128;2022-11-21T09:15:36;0.30;99.90
15707;DHT22;7953;54.302;10.128;2022-11-21T09:18:21;0.30;99.90
15707;DHT22;7953;54.302;10.128;2022-11-21T09:20:48;0.30;99.90
15707;DHT22;7953;54.302;10.128;2022-11-21T09:23:15;0.30;99.90
15707;DHT22;7953;54.302;10.128;2022-11-21T09:25:43;0.40;99.90
15707;DHT22;7953;54.302;10.128;2022-11-21T09:28:12;0.40;99.90
15707;DHT22;7953;54.302;10.128;2022-11-21T09:30:40;0.40;99.90
15707;DHT22;7953;54.302;10.128;2022-11-21T09:33:09;0.50;99.90
15707;DHT22;7953;54.302;10.128;2022-11-21T09:35:37;0.50;99.90
15707;DHT22;7953;54.302;10.128;2022-11-21T09:38:04;0.50;99.90
15707;DHT22;7953;54.302;10.128;2022-11-21T09:40:32;0.50;99.90
15707;DHT22;7953;54.302;10.128;2022-11-21T09:43:09;0.60;99.90
15707;DHT22;7953;54.302;10.128;2022-11-21T09:45:45;0.60;99.90
15707;DHT22;7953;54.302;10.128;2022-11-21T09:48:16;0.60;99.90
15707;DHT22;7953;54.302;10.128;2022-11-21T09:50:46;0.60;99.90
15707;DHT22;7953;54.302;10.128;2022-11-21T09:53:18;0.60;99.90
15707;DHT22;7953;54.302;10.128;2022-11-21T09:55:50;0.60;99.90
15707;DHT22;7953;54.302;10.128;2022-11-21T09:58:24;0.60;99.90
15707;DHT22;7953;54.302;10.128;2022-11-21T10:00:53;0.60;99.90
15707;DHT22;7953;54.302;10.128;2022-11-21T10:03:23;0.70;99.90
15707;DHT22;7953;54.302;10.128;2022-11-21T10:05:53;0.70;99.90
15707;DHT22;7953;54.302;10.128;2022-11-21T10:08:28;0.70;99.90
15707;DHT22;7953;54.302;10.128;2022-11-21T10:11:09;0.70;99.90
15707;DHT22;7953;54.302;10.128;2022-11-21T10:13:48;0.70;99.90
15707;DHT22;7953;54.302;10.128;2022-11-21T10:16:27;0.60;99.90
15707;DHT22;7953;54.302;10.128;2022-11-21T10:19:25;0.70;99.90
15707;DHT22;7953;54.302;10.128;2022-11-21T10:25:04;0.70;99.90
15707;DHT22;7953;54.302;10.128;2022-11-21T10:27:42;0.70;99.90
15707;DHT22;7953;54.302;10.128;2022-11-21T10:30:15;0.80;99.90
15707;DHT22;7953;54.302;10.128;2022-11-21T10:32:46;0.80;99.90
15707;DHT22;7953;54.302;10.128;2022-11-21T10:35:15;0.80;99.90
15707;DHT22;7953;54.302;10.128;2022-11-21T10:37:47;0.90;99.90
15707;DHT22;7953;54.302;10.128;2022-11-21T10:40:31;0.90;99.90
15707;DHT22;7953;54.302;10.128;2022-11-21T10:43:02;0.90;99.90
15707;DHT22;7953;54.302;10.128;2022-11-21T10:45:51;0.90;99.90
15707;DHT22;7953;54.302;10.128;2022-11-21T10:48:19;1.00;99.90
15707;DHT22;7953;54.302;10.128;2022-11-21T10:51:02;1.00;99.90
15707;DHT22;7953;54.302;10.128;2022-11-21T10:53:31;1.00;99.90
15707;DHT22;7953;54.302;10.128;2022-11-21T10:56:17;1.00;99.90
15707;DHT22;7953;54.302;10.128;2022-11-21T10:58:46;1.00;99.90
15707;DHT22;7953;54.302;10.128;2022-11-21T11:01:21;1.00;99.90
15707;DHT22;7953;54.302;10.128;2022-11-21T11:04:06;1.10;99.90
15707;DHT22;7953;54.302;10.128;2022-11-21T11:06:33;1.10;99.90
15707;DHT22;7953;54.302;10.128;2022-11-21T11:09:00;1.20;99.90
15707;DHT22;7953;54.302;10.128;2022-11-21T11:11:27;1.20;99.90
15707;DHT22;7953;54.302;10.128;2022-11-21T11:13:56;1.20;99.90
15707;DHT22;7953;54.302;10.128;2022-11-21T11:16:25;1.30;99.90
15707;DHT22;7953;54.302;10.128;2022-11-21T11:18:59;1.30;99.90
15707;DHT22;7953;54.302;10.128;2022-11-21T11:21:28;1.40;99.90
15707;DHT22;7953;54.302;10.128;2022-11-21T11:24:06;1.40;99.90
15707;DHT22;7953;54.302;10.128;2022-11-21T11:26:55;1.40;99.90
15707;DHT22;7953;54.302;10.128;2022-11-21T11:29:24;1.30;99.90
15707;DHT22;7953;54.302;10.128;2022-11-21T11:31:54;1.30;99.90
15707;DHT22;7953;54.302;10.128;2022-11-21T11:34:22;1.30;99.90
15707;DHT22;7953;54.302;10.128;2022-11-21T11:37:04;1.40;99.90
15707;DHT22;7953;54.302;10.128;2022-11-21T11:39:38;1.40;99.90
15707;DHT22;7953;54.302;10.128;2022-11-21T11:42:20;1.40;99.90
15707;DHT22;7953;54.302;10.128;2022-11-21T11:45:14;1.40;99.90
15707;DHT22;7953;54.302;10.128;2022-11-21T11:48:00;1.40;99.90
15707;DHT22;7953;54.302;10.128;2022-11-21T11:50:32;1.50;99.90
15707;DHT22;7953;54.302;10.128;2022-11-21T11:53:06;1.50;99.90
15707;DHT22;7953;54.302;10.128;2022-11-21T11:55:39;1.60;99.90
15707;DHT22;7953;54.302;10.128;2022-11-21T11:58:13;1.60;99.90
15707;DHT22;7953;54.302;10.128;2022-11-21T12:00:46;1.60;99.90
15707;DHT22;7953;54.302;10.128;2022-11-21T12:03:17;1.60;99.90
15707;DHT22;7953;54.302;10.128;2022-11-21T12:05:53;1.60;99.90
15707;DHT22;7953;54.302;10.128;2022-11-21T12:08:27;1.70;99.90
15707;DHT22;7953;54.302;10.128;2022-11-21T12:10:59;1.70;99.90
15707;DHT22;7953;54.302;10.128;2022-11-21T12:13:48;1.60;99.90
15707;DHT22;7953;54.302;10.128;2022-11-21T12:16:16;1.70;99.90
15707;DHT22;7953;54.302;10.128;2022-11-21T12:18:49;1.70;99.90
15707;DHT22;7953;54.302;10.128;2022-11-21T12:21:17;1.70;99.90
15707;DHT22;7953;54.302;10.128;2022-11-21T12:23:47;1.80;99.90
15707;DHT22;7953;54.302;10.128;2022-11-21T12:26:27;1.70;99.90
15707;DHT22;7953;54.302;10.128;2022-11-21T12:29:12;1.70;99.90
15707;DHT22;7953;54.302;10.128;2022-11-21T12:31:52;1.80;99.90
15707;DHT22;7953;54.302;10.128;2022-11-21T12:34:50;1.80;99.90
15707;DHT22;7953;54.302;10.128;2022-11-21T12:37:27;1.80;99.90
15707;DHT22;7953;54.302;10.128;2022-11-21T12:40:11;1.90;99.90
15707;DHT22;7953;54.302;10.128;2022-11-21T12:42:55;1.90;99.90
15707;DHT22;7953;54.302;10.128;2022-11-21T12:45:28;1.80;99.90
15707;DHT22;7953;54.302;10.128;2022-11-21T12:48:14;1.80;99.90
15707;DHT22;7953;54.302;10.128;2022-11-21T12:57:20;1.90;99.90
15707;DHT22;7953;54.302;10.128;2022-11-21T12:59:58;1.80;99.90
15707;DHT22;7953;54.302;10.128;2022-11-21T13:02:34;1.90;99.90
15707;DHT22;7953;54.302;10.128;2022-11-21T13:05:07;1.80;99.90
15707;DHT22;7953;54.302;10.128;2022-11-21T13:07:36;1.90;99.90
15707;DHT22;7953;54.302;10.128;2022-11-21T13:10:04;1.90;99.90
15707;DHT22;7953;54.302;10.128;2022-11-21T13:12:43;1.80;99.90
15707;DHT22;7953;54.302;10.128;2022-11-21T13:15:23;1.90;99.90
15707;DHT22;7953;54.302;10.128;2022-11-21T13:17:54;1.90;99.90
15707;DHT22;7953;54.302;10.128;2022-11-21T13:20:29;1.90;99.90
15707;DHT22;7953;54.302;10.128;2022-11-21T13:22:58;1.80;99.90
15707;DHT22;7953;54.302;10.128;2022-11-21T13:25:36;1.80;99.90
15707;DHT22;7953;54.302;10.128;2022-11-21T13:28:33;1.80;99.90
15707;DHT22;7953;54.302;10.128;2022-11-21T13:31:04;1.80;99.90
15707;DHT22;7953;54.302;10.128;2022-11-21T13:33:46;1.80;99.90
15707;DHT22;7953;54.302;10.128;2022-11-21T13:36:34;1.80;99.90
15707;DHT22;7953;54.302;10.128;2022-11-21T13:39:32;1.80;99.90
15707;DHT22;7953;54.302;10.128;2022-11-21T13:42:01;1.80;99.90
15707;DHT22;7953;54.302;10.128;2022-11-21T13:44:48;1.80;99.90
15707;DHT22;7953;54.302;10.128;2022-11-21T13:50:30;1.80;99.90
15707;DHT22;7953;54.302;10.128;2022-11-21T13:53:06;1.80;99.90
15707;DHT22;7953;54.302;10.128;2022-11-21T13:55:55;1.80;99.90
15707;DHT22;7953;54.302;10.128;2022-11-21T13:58:36;1.80;99.90
15707;DHT22;7953;54.302;10.128;2022-11-21T14:01:33;1.70;99.90
15707;DHT22;7953;54.302;10.128;2022-11-21T14:07:24;1.70;99.90
15707;DHT22;7953;54.302;10.128;2022-11-21T14:09:53;1.80;99.90
15707;DHT22;7953;54.302;10.128;2022-11-21T14:12:23;1.70;99.90
15707;DHT22;7953;54.302;10.128;2022-11-21T14:15:06;1.70;99.90
15707;DHT22;7953;54.302;10.128;2022-11-21T14:17:42;1.80;99.90
15707;DHT22;7953;54.302;10.128;2022-11-21T14:20:16;1.80;99.90
15707;DHT22;7953;54.302;10.128;2022-11-21T14:22:50;1.80;99.90
15707;DHT22;7953;54.302;10.128;2022-11-21T14:25:21;1.80;99.90
15707;DHT22;7953;54.302;10.128;2022-11-21T14:27:51;1.90;99.90
15707;DHT22;7953;54.302;10.128;2022-11-21T14:30:32;1.80;99.90
15707;DHT22;7953;54.302;10.128;2022-11-21T14:33:29;1.80;99.90
15707;DHT22;7953;54.302;10.128;2022-11-21T14:36:01;1.70;99.90
15707;DHT22;7953;54.302;10.128;2022-11-21T14:38:29;1.80;99.90
15707;DHT22;7953;54.302;10.128;2022-11-21T14:41:28;1.70;99.90
15707;DHT22;7953;54.302;10.128;2022-11-21T14:44:04;1.70;99.90
15707;DHT22;7953;54.302;10.128;2022-11-21T14:46:33;1.70;99.90
15707;DHT22;7953;54.302;10.128;2022-11-21T14:49:17;1.70;99.90
15707;DHT22;7953;54.302;10.128;2022-11-21T14:51:47;1.70;99.90
15707;DHT22;7953;54.302;10.128;2022-11-21T14:54:16;1.60;99.90
15707;DHT22;7953;54.302;10.128;2022-11-21T14:56:46;1.60;99.90
15707;DHT22;7953;54.302;10.128;2022-11-21T14:59:21;1.60;99.90
15707;DHT22;7953;54.302;10.128;2022-11-21T15:01:58;1.60;99.90
15707;DHT22;7953;54.302;10.128;2022-11-21T15:04:29;1.60;99.90
15707;DHT22;7953;54.302;10.128;2022-11-21T15:06:56;1.50;99.90
15707;DHT22;7953;54.302;10.128;2022-11-21T15:09:24;1.50;99.90
15707;DHT22;7953;54.302;10.128;2022-11-21T15:11:53;1.50;99.90
15707;DHT22;7953;54.302;10.128;2022-11-21T15:14:26;1.50;99.90
15707;DHT22;7953;54.302;10.128;2022-11-21T15:16:55;1.50;99.90
15707;DHT22;7953;54.302;10.128;2022-11-21T15:19:24;1.50;99.90
15707;DHT22;7953;54.302;10.128;2022-11-21T15:21:55;1.50;99.90
15707;DHT22;7953;54.302;10.128;2022-11-21T15:24:30;1.50;99.90
15707;DHT22;7953;54.302;10.128;2022-11-21T15:26:57;1.50;99.90
15707;DHT22;7953;54.302;10.128;2022-11-21T15:29:25;1.50;99.90
15707;DHT22;7953;54.302;10.128;2022-11-21T15:32:10;1.40;99.90
15707;DHT22;7953;54.302;10.128;2022-11-21T15:34:38;1.40;99.90
15707;DHT22;7953;54.302;10.128;2022-11-21T15:37:13;1.40;99.90
15707;DHT22;7953;54.302;10.128;2022-11-21T15:39:42;1.40;99.90
15707;DHT22;7953;54.302;10.128;2022-11-21T15:42:34;1.40;99.90
15707;DHT22;7953;54.302;10.128;2022-11-21T15:45:18;1.40;99.90
15707;DHT22;7953;54.302;10.128;2022-11-21T15:47:46;1.40;99.90
15707;DHT22;7953;54.302;10.128;2022-11-21T15:50:13;1.50;99.90
15707;DHT22;7953;54.302;10.128;2022-11-21T15:52:44;1.50;99.90
15707;DHT22;7953;54.302;10.128;2022-11-21T15:55:17;1.50;99.90
15707;DHT22;7953;54.302;10.128;2022-11-21T15:57:44;1.50;99.90
15707;DHT22;7953;54.302;10.128;2022-11-21T16:00:12;1.50;99.90
15707;DHT22;7953;54.302;10.128;2022-11-21T16:02:39;1.50;99.90
15707;DHT22;7953;54.302;10.128;2022-11-21T16:05:10;1.50;99.90
15707;DHT22;7953;54.302;10.128;2022-11-21T16:07:37;1.50;99.90
15707;DHT22;7953;54.302;10.128;2022-11-21T16:10:06;1.50;99.90
15707;DHT22;7953;54.302;10.128;2022-11-21T16:12:33;1.50;99.90
15707;DHT22;7953;54.302;10.128;2022-11-21T16:14:59;1.50;99.90
15707;DHT22;7953;54.302;10.128;2022-11-21T16:17:26;1.50;99.90